sensor_id;sensor_type;location;lat;lon;timestamp;pressure;altitude;pressure_sealevel;temperature;humidity
19510;BME280;9896;42.486;26.506;2022-07-22T00:02:13;99775.91;;;19.92;85.29
19510;BME280;9896;42.486;26.506;2022-07-22T00:04:39;99774.28;;;20.17;85.40
19510;BME280;9896;42.486;26.506;2022-07-22T00:07:04;99773.19;;;20.18;85.26
19510;BME280;9896;42.486;26.506;2022-07-22T00:09:30;99776.78;;;20.33;85.35
19510;BME280;9896;42.486;26.506;2022-07-22T00:11:56;99781.34;;;19.98;86.60
19510;BME280;9896;42.486;26.506;2022-07-22T00:14:22;99780.78;;;19.80;85.96
19510;BME280;9896;42.486;26.506;2022-07-22T00:16:47;99785.94;;;19.72;86.40
19510;BME280;9896;42.486;26.506;2022-07-22T00:19:13;99789.44;;;19.57;86.75
19510;BME280;9896;42.486;26.506;2022-07-22T00:21:38;99790.16;;;19.37;87.29
19510;BME280;9896;42.486;26.506;2022-07-22T00:24:04;99791.72;;;19.18;88.31
19510;BME280;9896;42.486;26.506;2022-07-22T00:26:30;99792.31;;;19.30;87.09
19510;BME280;9896;42.486;26.506;2022-07-22T00:28:55;99795.25;;;19.19;87.89
19510;BME280;9896;42.486;26.506;2022-07-22T00:31:21;99794.16;;;19.20;87.57
19510;BME280;9896;42.486;26.506;2022-07-22T00:33:46;99799.25;;;19.06;88.22
19510;BME280;9896;42.486;26.506;2022-07-22T00:36:12;99798.13;;;18.97;88.64
19510;BME280;9896;42.486;26.506;2022-07-22T00:38:38;99803.69;;;18.75;90.05
19510;BME280;9896;42.486;26.506;2022-07-22T00:41:04;99800.66;;;18.67;90.76
19510;BME280;9896;42.486;26.506;2022-07-22T00:43:49;99800.22;;;18.48;92.27
19510;BME280;9896;42.486;26.506;2022-07-22T00:46:15;99796.81;;;18.58;91.84
19510;BME280;9896;42.486;26.506;2022-07-22T00:48:40;99803.16;;;18.73;90.97
19510;BME280;9896;42.486;26.506;2022-07-22T00:51:06;99801.59;;;18.82;90.81
19510;BME280;9896;42.486;26.506;2022-07-22T00:53:31;99803.56;;;18.97;89.97
19510;BME280;9896;42.486;26.506;2022-07-22T00:55:57;99797.00;;;18.93;89.90
19510;BME280;9896;42.486;26.506;2022-07-22T00:58:23;99795.28;;;18.77;90.98
19510;BME280;9896;42.486;26.506;2022-07-22T01:00:49;99795.88;;;18.84;90.42
19510;BME280;9896;42.486;26.506;2022-07-22T01:03:14;99792.94;;;18.95;89.74
19510;BME280;9896;42.486;26.506;2022-07-22T01:05:42;99791.44;;;19.15;88.55
19510;BME280;9896;42.486;26.506;2022-07-22T01:08:07;99789.44;;;18.95;89.13
19510;BME280;9896;42.486;26.506;2022-07-22T01:10:33;99784.38;;;18.72;90.91
19510;BME280;9896;42.486;26.506;2022-07-22T01:12:58;99796.91;;;18.73;91.09
19510;BME280;9896;42.486;26.506;2022-07-22T01:15:24;99793.66;;;18.76;90.54
19510;BME280;9896;42.486;26.506;2022-07-22T01:17:49;99777.88;;;18.73;90.14
19510;BME280;9896;42.486;26.506;2022-07-22T01:20:15;99782.03;;;18.85;89.43
19510;BME280;9896;42.486;26.506;2022-07-22T01:22:40;99786.13;;;18.88;89.43
19510;BME280;9896;42.486;26.506;2022-07-22T01:25:06;99779.25;;;18.75;90.05
19510;BME280;9896;42.486;26.506;2022-07-22T01:27:32;99792.00;;;18.75;90.91
19510;BME280;9896;42.486;26.506;2022-07-22T01:29:57;99784.06;;;18.63;91.33
19510;BME280;9896;42.486;26.506;2022-07-22T01:32:23;99787.63;;;18.69;90.90
19510;BME280;9896;42.486;26.506;2022-07-22T01:34:49;99773.47;;;18.67;90.54
19510;BME280;9896;42.486;26.506;2022-07-22T01:37:14;99778.41;;;18.75;90.74
19510;BME280;9896;42.486;26.506;2022-07-22T01:39:40;99779.41;;;18.58;91.37
19510;BME280;9896;42.486;26.506;2022-07-22T01:42:05;99781.34;;;18.63;90.88
19510;BME280;9896;42.486;26.506;2022-07-22T01:44:32;99784.13;;;18.73;90.25
19510;BME280;9896;42.486;26.506;2022-07-22T01:46:57;99780.13;;;18.86;89.56
19510;BME280;9896;42.486;26.506;2022-07-22T01:49:24;99771.91;;;18.76;89.88
19510;BME280;9896;42.486;26.506;2022-07-22T01:51:50;99779.31;;;18.48;91.20
19510;BME280;9896;42.486;26.506;2022-07-22T01:54:15;99768.09;;;18.72;90.25
19510;BME280;9896;42.486;26.506;2022-07-22T01:56:41;99767.50;;;18.65;90.25
19510;BME280;9896;42.486;26.506;2022-07-22T01:59:06;99767.00;;;18.73;90.17
19510;BME280;9896;42.486;26.506;2022-07-22T02:01:33;99770.81;;;18.72;89.94
19510;BME280;9896;42.486;26.506;2022-07-22T02:03:58;99766.75;;;18.74;89.99
19510;BME280;9896;42.486;26.506;2022-07-22T02:06:24;99765.16;;;18.78;90.39
19510;BME280;9896;42.486;26.506;2022-07-22T02:08:49;99773.81;;;18.70;90.28
19510;BME280;9896;42.486;26.506;2022-07-22T02:11:15;99770.31;;;18.80;89.53
19510;BME280;9896;42.486;26.506;2022-07-22T02:13:40;99774.53;;;18.61;90.82
19510;BME280;9896;42.486;26.506;2022-07-22T02:16:06;99764.53;;;18.66;91.04
19510;BME280;9896;42.486;26.506;2022-07-22T02:18:31;99773.28;;;18.73;89.69
19510;BME280;9896;42.486;26.506;2022-07-22T02:20:57;99776.19;;;18.67;90.48
19510;BME280;9896;42.486;26.506;2022-07-22T02:23:22;99768.38;;;18.70;89.90
19510;BME280;9896;42.486;26.506;2022-07-22T02:25:48;99769.59;;;18.52;90.58
19510;BME280;9896;42.486;26.506;2022-07-22T02:28:13;99770.09;;;18.49;90.87
19510;BME280;9896;42.486;26.506;2022-07-22T02:30:39;99769.41;;;18.64;90.05
19510;BME280;9896;42.486;26.506;2022-07-22T02:33:05;99765.28;;;18.56;90.34
19510;BME280;9896;42.486;26.506;2022-07-22T02:35:31;99762.88;;;18.28;91.99
19510;BME280;9896;42.486;26.506;2022-07-22T02:37:56;99766.19;;;18.35;92.18
19510;BME280;9896;42.486;26.506;2022-07-22T02:40:22;99763.94;;;18.54;91.10
19510;BME280;9896;42.486;26.506;2022-07-22T02:42:47;99761.28;;;18.69;89.97
19510;BME280;9896;42.486;26.506;2022-07-22T02:45:13;99754.69;;;18.55;90.55
19510;BME280;9896;42.486;26.506;2022-07-22T02:47:53;99756.47;;;18.44;91.02
19510;BME280;9896;42.486;26.506;2022-07-22T02:50:20;99760.56;;;18.42;91.93
19510;BME280;9896;42.486;26.506;2022-07-22T02:52:46;99765.66;;;18.75;90.30
19510;BME280;9896;42.486;26.506;2022-07-22T02:55:12;99767.38;;;18.91;88.54
19510;BME280;9896;42.486;26.506;2022-07-22T02:57:38;99769.00;;;18.87;88.38
19510;BME280;9896;42.486;26.506;2022-07-22T03:00:05;99767.47;;;18.60;89.47
19510;BME280;9896;42.486;26.506;2022-07-22T03:02:33;99765.16;;;18.78;88.56
19510;BME280;9896;42.486;26.506;2022-07-22T03:04:58;99767.97;;;19.03;86.97
19510;BME280;9896;42.486;26.506;2022-07-22T03:07:23;99762.13;;;18.75;88.58
19510;BME280;9896;42.486;26.506;2022-07-22T03:09:49;99768.88;;;18.67;89.73
19510;BME280;9896;42.486;26.506;2022-07-22T03:12:14;99751.72;;;18.56;90.27
19510;BME280;9896;42.486;26.506;2022-07-22T03:14:40;99756.69;;;18.70;89.22
19510;BME280;9896;42.486;26.506;2022-07-22T03:17:06;99755.00;;;18.64;89.19
19510;BME280;9896;42.486;26.506;2022-07-22T03:19:31;99761.47;;;18.52;90.13
19510;BME280;9896;42.486;26.506;2022-07-22T03:21:57;99763.47;;;18.72;89.32
19510;BME280;9896;42.486;26.506;2022-07-22T03:24:22;99773.38;;;18.93;87.91
19510;BME280;9896;42.486;26.506;2022-07-22T03:26:48;99773.66;;;18.97;87.73
19510;BME280;9896;42.486;26.506;2022-07-22T03:29:13;99773.81;;;18.70;89.16
19510;BME280;9896;42.486;26.506;2022-07-22T03:31:39;99781.34;;;18.58;89.69
19510;BME280;9896;42.486;26.506;2022-07-22T03:34:04;99771.72;;;18.50;89.73
19510;BME280;9896;42.486;26.506;2022-07-22T03:36:30;99780.81;;;18.61;89.13
19510;BME280;9896;42.486;26.506;2022-07-22T03:38:55;99767.56;;;18.70;88.84
19510;BME280;9896;42.486;26.506;2022-07-22T03:41:21;99779.28;;;18.80;88.55
19510;BME280;9896;42.486;26.506;2022-07-22T03:43:47;99770.94;;;18.50;89.93
19510;BME280;9896;42.486;26.506;2022-07-22T03:46:13;99773.44;;;18.56;89.88
19510;BME280;9896;42.486;26.506;2022-07-22T03:48:38;99778.03;;;18.56;90.65
19510;BME280;9896;42.486;26.506;2022-07-22T03:51:04;99779.53;;;18.74;89.73
19510;BME280;9896;42.486;26.506;2022-07-22T03:53:30;99770.88;;;18.82;88.72
19510;BME280;9896;42.486;26.506;2022-07-22T03:55:55;99780.75;;;18.98;88.19
19510;BME280;9896;42.486;26.506;2022-07-22T03:58:21;99775.56;;;18.96;88.03
19510;BME280;9896;42.486;26.506;2022-07-22T04:00:46;99780.84;;;19.18;86.96
19510;BME280;9896;42.486;26.506;2022-07-22T04:03:12;99784.38;;;19.24;86.56
19510;BME280;9896;42.486;26.506;2022-07-22T04:05:37;99790.91;;;19.23;86.71
19510;BME280;9896;42.486;26.506;2022-07-22T04:08:03;99788.31;;;18.96;87.87
19510;BME280;9896;42.486;26.506;2022-07-22T04:10:29;99798.63;;;18.89;88.50
19510;BME280;9896;42.486;26.506;2022-07-22T04:12:54;99797.44;;;19.22;86.55
19510;BME280;9896;42.486;26.506;2022-07-22T04:15:20;99797.09;;;19.08;87.18
19510;BME280;9896;42.486;26.506;2022-07-22T04:17:45;99797.44;;;18.75;89.36
19510;BME280;9896;42.486;26.506;2022-07-22T04:20:11;99790.72;;;18.87;88.65
19510;BME280;9896;42.486;26.506;2022-07-22T04:22:40;99795.31;;;18.82;89.67
19510;BME280;9896;42.486;26.506;2022-07-22T04:25:06;99809.44;;;18.79;90.43
19510;BME280;9896;42.486;26.506;2022-07-22T04:27:31;99795.16;;;19.03;88.81
19510;BME280;9896;42.486;26.506;2022-07-22T04:29:58;99795.97;;;18.99;89.16
19510;BME280;9896;42.486;26.506;2022-07-22T04:32:23;99796.78;;;18.99;89.60
19510;BME280;9896;42.486;26.506;2022-07-22T04:34:49;99795.94;;;18.94;90.01
19510;BME280;9896;42.486;26.506;2022-07-22T04:37:14;99804.41;;;19.02;90.02
19510;BME280;9896;42.486;26.506;2022-07-22T04:39:40;99814.00;;;19.20;89.46
19510;BME280;9896;42.486;26.506;2022-07-22T04:42:05;99809.34;;;19.16;90.18
19510;BME280;9896;42.486;26.506;2022-07-22T04:44:31;99809.41;;;19.26;89.94
19510;BME280;9896;42.486;26.506;2022-07-22T04:46:57;99809.81;;;19.49;88.43
19510;BME280;9896;42.486;26.506;2022-07-22T04:49:22;99809.78;;;19.44;89.29
19510;BME280;9896;42.486;26.506;2022-07-22T04:51:48;99800.03;;;19.54;88.64
19510;BME280;9896;42.486;26.506;2022-07-22T04:54:14;99821.31;;;19.77;87.25
19510;BME280;9896;42.486;26.506;2022-07-22T04:56:39;99817.84;;;19.97;86.72
19510;BME280;9896;42.486;26.506;2022-07-22T04:59:05;99814.09;;;20.33;85.50
19510;BME280;9896;42.486;26.506;2022-07-22T05:01:30;99807.53;;;20.29;85.31
19510;BME280;9896;42.486;26.506;2022-07-22T05:03:56;99812.16;;;20.54;83.82
19510;BME280;9896;42.486;26.506;2022-07-22T05:06:21;99809.41;;;20.18;85.09
19510;BME280;9896;42.486;26.506;2022-07-22T05:08:47;99804.81;;;20.29;84.80
19510;BME280;9896;42.486;26.506;2022-07-22T05:11:12;99810.22;;;20.19;85.71
19510;BME280;9896;42.486;26.506;2022-07-22T05:13:38;99812.16;;;20.44;84.93
19510;BME280;9896;42.486;26.506;2022-07-22T05:16:04;99806.69;;;20.64;83.18
19510;BME280;9896;42.486;26.506;2022-07-22T05:18:30;99806.34;;;21.01;81.94
19510;BME280;9896;42.486;26.506;2022-07-22T05:20:56;99809.38;;;20.94;82.30
19510;BME280;9896;42.486;26.506;2022-07-22T05:23:21;99800.63;;;20.97;81.65
19510;BME280;9896;42.486;26.506;2022-07-22T05:25:47;99818.63;;;21.13;80.61
19510;BME280;9896;42.486;26.506;2022-07-22T05:28:12;99811.59;;;21.56;77.80
19510;BME280;9896;42.486;26.506;2022-07-22T05:30:38;99802.53;;;21.76;77.29
19510;BME280;9896;42.486;26.506;2022-07-22T05:33:03;99812.97;;;21.59;77.45
19510;BME280;9896;42.486;26.506;2022-07-22T05:35:29;99805.66;;;21.44;78.12
19510;BME280;9896;42.486;26.506;2022-07-22T05:37:54;99807.53;;;21.54;77.51
19510;BME280;9896;42.486;26.506;2022-07-22T05:40:21;99810.13;;;21.79;76.66
19510;BME280;9896;42.486;26.506;2022-07-22T05:42:46;99798.66;;;21.82;76.63
19510;BME280;9896;42.486;26.506;2022-07-22T05:45:12;99806.38;;;21.65;76.32
19510;BME280;9896;42.486;26.506;2022-07-22T05:47:37;99800.53;;;21.92;75.39
19510;BME280;9896;42.486;26.506;2022-07-22T05:50:04;99802.53;;;22.20;74.10
19510;BME280;9896;42.486;26.506;2022-07-22T05:52:29;99804.31;;;21.91;75.09
19510;BME280;9896;42.486;26.506;2022-07-22T05:54:55;99798.81;;;22.40;73.72
19510;BME280;9896;42.486;26.506;2022-07-22T05:57:21;99811.59;;;22.10;74.29
19510;BME280;9896;42.486;26.506;2022-07-22T05:59:46;99809.84;;;22.87;72.23
19510;BME280;9896;42.486;26.506;2022-07-22T06:02:11;99806.00;;;22.59;72.54
19510;BME280;9896;42.486;26.506;2022-07-22T06:04:37;99803.25;;;22.93;71.60
19510;BME280;9896;42.486;26.506;2022-07-22T06:07:02;99799.31;;;23.23;70.15
19510;BME280;9896;42.486;26.506;2022-07-22T06:09:28;99802.47;;;23.35;69.87
19510;BME280;9896;42.486;26.506;2022-07-22T06:11:55;99794.16;;;23.45;69.00
19510;BME280;9896;42.486;26.506;2022-07-22T06:14:20;99791.81;;;23.57;68.76
19510;BME280;9896;42.486;26.506;2022-07-22T06:16:46;99791.31;;;23.55;68.02
19510;BME280;9896;42.486;26.506;2022-07-22T06:19:11;99794.25;;;23.59;67.90
19510;BME280;9896;42.486;26.506;2022-07-22T06:21:37;99797.56;;;23.32;69.27
19510;BME280;9896;42.486;26.506;2022-07-22T06:24:04;99798.03;;;23.63;67.76
19510;BME280;9896;42.486;26.506;2022-07-22T06:26:30;99799.91;;;23.68;66.62
19510;BME280;9896;42.486;26.506;2022-07-22T06:28:55;99787.09;;;23.63;66.17
19510;BME280;9896;42.486;26.506;2022-07-22T06:31:21;99789.22;;;23.85;65.68
19510;BME280;9896;42.486;26.506;2022-07-22T06:33:46;99783.06;;;24.63;62.34
19510;BME280;9896;42.486;26.506;2022-07-22T06:36:11;99784.63;;;24.36;63.54
19510;BME280;9896;42.486;26.506;2022-07-22T06:38:39;99792.94;;;24.77;61.25
19510;BME280;9896;42.486;26.506;2022-07-22T06:41:05;99780.94;;;24.73;61.81
19510;BME280;9896;42.486;26.506;2022-07-22T06:43:30;99783.88;;;24.63;62.48
19510;BME280;9896;42.486;26.506;2022-07-22T06:45:55;99778.91;;;24.79;61.77
19510;BME280;9896;42.486;26.506;2022-07-22T06:48:22;99781.09;;;24.95;60.86
19510;BME280;9896;42.486;26.506;2022-07-22T06:50:47;99779.78;;;24.93;60.48
19510;BME280;9896;42.486;26.506;2022-07-22T06:53:13;99780.41;;;25.31;59.28
19510;BME280;9896;42.486;26.506;2022-07-22T06:55:38;99770.00;;;25.28;58.54
19510;BME280;9896;42.486;26.506;2022-07-22T06:58:04;99780.47;;;25.67;57.48
19510;BME280;9896;42.486;26.506;2022-07-22T07:00:29;99787.00;;;25.57;57.17
19510;BME280;9896;42.486;26.506;2022-07-22T07:02:58;99789.13;;;25.47;56.85
19510;BME280;9896;42.486;26.506;2022-07-22T07:05:24;99786.25;;;25.52;56.93
19510;BME280;9896;42.486;26.506;2022-07-22T07:07:53;99787.97;;;25.75;56.14
19510;BME280;9896;42.486;26.506;2022-07-22T07:10:18;99786.53;;;25.77;56.93
19510;BME280;9896;42.486;26.506;2022-07-22T07:12:44;99791.66;;;25.57;56.77
19510;BME280;9896;42.486;26.506;2022-07-22T07:15:09;99785.25;;;25.97;56.41
19510;BME280;9896;42.486;26.506;2022-07-22T07:17:35;99782.75;;;26.09;55.69
19510;BME280;9896;42.486;26.506;2022-07-22T07:20:01;99787.78;;;26.29;54.17
19510;BME280;9896;42.486;26.506;2022-07-22T07:22:26;99789.66;;;26.43;54.00
19510;BME280;9896;42.486;26.506;2022-07-22T07:24:52;99782.47;;;26.33;54.93
19510;BME280;9896;42.486;26.506;2022-07-22T07:27:17;99779.41;;;26.57;53.66
19510;BME280;9896;42.486;26.506;2022-07-22T07:29:43;99775.38;;;26.32;53.39
19510;BME280;9896;42.486;26.506;2022-07-22T07:32:08;99772.63;;;26.85;51.73
19510;BME280;9896;42.486;26.506;2022-07-22T07:34:34;99781.13;;;27.06;50.63
19510;BME280;9896;42.486;26.506;2022-07-22T07:36:59;99787.41;;;27.06;50.88
19510;BME280;9896;42.486;26.506;2022-07-22T07:39:25;99789.53;;;26.78;51.05
19510;BME280;9896;42.486;26.506;2022-07-22T07:41:50;99794.91;;;27.14;50.06
19510;BME280;9896;42.486;26.506;2022-07-22T07:44:18;99793.69;;;27.38;48.42
19510;BME280;9896;42.486;26.506;2022-07-22T07:46:43;99796.44;;;27.29;48.67
19510;BME280;9896;42.486;26.506;2022-07-22T07:49:09;99790.03;;;27.59;47.81
19510;BME280;9896;42.486;26.506;2022-07-22T07:51:34;99789.91;;;27.73;47.14
19510;BME280;9896;42.486;26.506;2022-07-22T07:54:00;99789.91;;;27.82;47.09
19510;BME280;9896;42.486;26.506;2022-07-22T07:56:26;99782.13;;;27.92;45.79
19510;BME280;9896;42.486;26.506;2022-07-22T07:58:51;99790.22;;;27.89;45.72
19510;BME280;9896;42.486;26.506;2022-07-22T08:01:17;99789.41;;;27.80;46.48
19510;BME280;9896;42.486;26.506;2022-07-22T08:03:42;99798.03;;;28.30;45.39
19510;BME280;9896;42.486;26.506;2022-07-22T08:06:08;99789.75;;;28.38;44.46
19510;BME280;9896;42.486;26.506;2022-07-22T08:08:34;99790.38;;;27.92;45.65
19510;BME280;9896;42.486;26.506;2022-07-22T08:10:59;99779.34;;;28.52;44.35
19510;BME280;9896;42.486;26.506;2022-07-22T08:13:25;99788.47;;;28.18;45.50
19510;BME280;9896;42.486;26.506;2022-07-22T08:15:50;99772.16;;;28.69;44.40
19510;BME280;9896;42.486;26.506;2022-07-22T08:18:15;99776.66;;;28.90;44.07
19510;BME280;9896;42.486;26.506;2022-07-22T08:20:41;99768.69;;;28.97;43.57
19510;BME280;9896;42.486;26.506;2022-07-22T08:23:07;99772.59;;;28.96;43.53
19510;BME280;9896;42.486;26.506;2022-07-22T08:25:32;99765.13;;;29.26;42.83
19510;BME280;9896;42.486;26.506;2022-07-22T08:27:58;99765.09;;;29.35;42.35
19510;BME280;9896;42.486;26.506;2022-07-22T08:30:23;99763.94;;;29.65;41.41
19510;BME280;9896;42.486;26.506;2022-07-22T08:32:52;99768.75;;;29.47;42.16
19510;BME280;9896;42.486;26.506;2022-07-22T08:35:18;99761.03;;;29.62;41.52
19510;BME280;9896;42.486;26.506;2022-07-22T08:37:44;99761.97;;;29.66;41.11
19510;BME280;9896;42.486;26.506;2022-07-22T08:40:11;99761.44;;;29.72;41.44
19510;BME280;9896;42.486;26.506;2022-07-22T08:42:40;99758.28;;;30.03;40.52
19510;BME280;9896;42.486;26.506;2022-07-22T08:45:08;99764.06;;;29.69;40.33
19510;BME280;9896;42.486;26.506;2022-07-22T08:47:34;99764.47;;;29.79;40.11
19510;BME280;9896;42.486;26.506;2022-07-22T08:50:00;99760.00;;;29.95;40.06
19510;BME280;9896;42.486;26.506;2022-07-22T08:52:25;99763.63;;;29.87;40.21
19510;BME280;9896;42.486;26.506;2022-07-22T08:54:51;99777.97;;;30.55;38.95
19510;BME280;9896;42.486;26.506;2022-07-22T08:57:19;99770.81;;;30.54;38.88
19510;BME280;9896;42.486;26.506;2022-07-22T08:59:56;99771.16;;;30.20;39.08
19510;BME280;9896;42.486;26.506;2022-07-22T09:02:22;99764.81;;;30.19;38.93
19510;BME280;9896;42.486;26.506;2022-07-22T09:04:58;99770.72;;;30.30;39.00
19510;BME280;9896;42.486;26.506;2022-07-22T09:07:30;99761.34;;;30.22;39.46
19510;BME280;9896;42.486;26.506;2022-07-22T09:09:59;99750.56;;;30.41;38.82
19510;BME280;9896;42.486;26.506;2022-07-22T09:12:25;99753.56;;;30.69;38.19
19510;BME280;9896;42.486;26.506;2022-07-22T09:14:56;99762.25;;;30.92;37.50
19510;BME280;9896;42.486;26.506;2022-07-22T09:17:28;99751.13;;;30.56;38.24
19510;BME280;9896;42.486;26.506;2022-07-22T09:19:59;99760.50;;;30.87;37.81
19510;BME280;9896;42.486;26.506;2022-07-22T09:22:38;99757.09;;;31.03;37.43
19510;BME280;9896;42.486;26.506;2022-07-22T09:25:17;99755.09;;;31.40;36.68
19510;BME280;9896;42.486;26.506;2022-07-22T09:27:48;99761.13;;;31.29;37.69
19510;BME280;9896;42.486;26.506;2022-07-22T09:30:18;99760.63;;;31.52;36.64
19510;BME280;9896;42.486;26.506;2022-07-22T09:32:44;99759.81;;;31.51;36.33
19510;BME280;9896;42.486;26.506;2022-07-22T09:35:10;99761.41;;;31.76;35.63
19510;BME280;9896;42.486;26.506;2022-07-22T09:37:44;99747.84;;;31.99;35.17
19510;BME280;9896;42.486;26.506;2022-07-22T09:40:17;99748.03;;;32.06;34.98
19510;BME280;9896;42.486;26.506;2022-07-22T09:42:47;99740.38;;;32.43;34.31
19510;BME280;9896;42.486;26.506;2022-07-22T09:45:13;99739.63;;;32.03;35.35
19510;BME280;9896;42.486;26.506;2022-07-22T09:47:41;99744.34;;;32.14;35.56
19510;BME280;9896;42.486;26.506;2022-07-22T09:50:37;99740.69;;;33.01;34.39
19510;BME280;9896;42.486;26.506;2022-07-22T09:53:03;99743.34;;;32.97;33.33
19510;BME280;9896;42.486;26.506;2022-07-22T09:55:28;99739.75;;;32.50;34.05
19510;BME280;9896;42.486;26.506;2022-07-22T09:57:56;99732.78;;;32.56;33.73
19510;BME280;9896;42.486;26.506;2022-07-22T10:00:24;99733.91;;;32.39;33.97
19510;BME280;9896;42.486;26.506;2022-07-22T10:02:54;99735.31;;;32.77;33.71
19510;BME280;9896;42.486;26.506;2022-07-22T10:05:23;99732.09;;;32.31;34.27
19510;BME280;9896;42.486;26.506;2022-07-22T10:07:50;99726.34;;;32.99;33.11
19510;BME280;9896;42.486;26.506;2022-07-22T10:10:21;99727.00;;;32.49;33.28
19510;BME280;9896;42.486;26.506;2022-07-22T10:12:49;99736.63;;;31.96;34.01
19510;BME280;9896;42.486;26.506;2022-07-22T10:15:15;99721.34;;;32.02;34.08
19510;BME280;9896;42.486;26.506;2022-07-22T10:17:44;99733.47;;;32.09;33.71
19510;BME280;9896;42.486;26.506;2022-07-22T10:20:11;99726.91;;;32.02;34.25
19510;BME280;9896;42.486;26.506;2022-07-22T10:25:10;99723.47;;;32.20;34.11
19510;BME280;9896;42.486;26.506;2022-07-22T10:27:55;99729.28;;;31.75;34.76
19510;BME280;9896;42.486;26.506;2022-07-22T10:30:28;99714.84;;;32.38;33.70
19510;BME280;9896;42.486;26.506;2022-07-22T10:33:11;99715.16;;;32.20;33.95
19510;BME280;9896;42.486;26.506;2022-07-22T10:38:11;99708.59;;;31.85;34.36
19510;BME280;9896;42.486;26.506;2022-07-22T10:46:08;99701.59;;;32.47;32.63
19510;BME280;9896;42.486;26.506;2022-07-22T10:56:13;99695.31;;;34.01;30.04
19510;BME280;9896;42.486;26.506;2022-07-22T11:01:08;99694.28;;;33.71;30.74
19510;BME280;9896;42.486;26.506;2022-07-22T11:03:36;99693.69;;;32.49;32.79
19510;BME280;9896;42.486;26.506;2022-07-22T11:08:47;99704.06;;;33.30;30.74
19510;BME280;9896;42.486;26.506;2022-07-22T11:11:12;99713.31;;;33.88;29.68
19510;BME280;9896;42.486;26.506;2022-07-22T11:13:40;99702.22;;;33.53;30.79
19510;BME280;9896;42.486;26.506;2022-07-22T11:16:21;99703.25;;;32.79;31.80
19510;BME280;9896;42.486;26.506;2022-07-22T11:18:55;99703.19;;;33.61;30.46
19510;BME280;9896;42.486;26.506;2022-07-22T11:21:23;99695.31;;;33.82;30.86
19510;BME280;9896;42.486;26.506;2022-07-22T11:23:52;99689.22;;;33.96;30.15
19510;BME280;9896;42.486;26.506;2022-07-22T11:26:24;99694.28;;;34.09;30.37
19510;BME280;9896;42.486;26.506;2022-07-22T11:28:50;99683.03;;;34.67;29.55
19510;BME280;9896;42.486;26.506;2022-07-22T11:31:17;99690.31;;;34.52;29.07
19510;BME280;9896;42.486;26.506;2022-07-22T11:33:44;99699.06;;;34.74;28.95
19510;BME280;9896;42.486;26.506;2022-07-22T11:36:10;99684.47;;;34.61;28.82
19510;BME280;9896;42.486;26.506;2022-07-22T11:41:11;99684.13;;;34.63;29.08
19510;BME280;9896;42.486;26.506;2022-07-22T11:43:43;99684.78;;;34.75;27.84
19510;BME280;9896;42.486;26.506;2022-07-22T11:46:09;99677.25;;;33.73;29.72
19510;BME280;9896;42.486;26.506;2022-07-22T11:48:34;99674.47;;;34.57;29.16
19510;BME280;9896;42.486;26.506;2022-07-22T11:51:01;99671.00;;;35.12;28.56
19510;BME280;9896;42.486;26.506;2022-07-22T11:53:27;99668.84;;;35.58;27.62
19510;BME280;9896;42.486;26.506;2022-07-22T11:55:59;99666.69;;;34.88;27.98
19510;BME280;9896;42.486;26.506;2022-07-22T11:58:49;99659.97;;;35.19;27.79
19510;BME280;9896;42.486;26.506;2022-07-22T12:01:17;99656.38;;;35.45;26.93
19510;BME280;9896;42.486;26.506;2022-07-22T12:03:52;99652.81;;;34.46;28.08
19510;BME280;9896;42.486;26.506;2022-07-22T12:06:19;99654.25;;;35.09;27.72
19510;BME280;9896;42.486;26.506;2022-07-22T12:08:50;99650.66;;;35.08;27.25
19510;BME280;9896;42.486;26.506;2022-07-22T12:11:18;99638.06;;;35.77;26.44
19510;BME280;9896;42.486;26.506;2022-07-22T12:13:46;99659.88;;;35.42;27.19
19510;BME280;9896;42.486;26.506;2022-07-22T12:16:28;99653.03;;;34.61;27.74
19510;BME280;9896;42.486;26.506;2022-07-22T12:19:08;99642.53;;;35.56;26.02
19510;BME280;9896;42.486;26.506;2022-07-22T12:21:51;99632.81;;;36.09;25.62
19510;BME280;9896;42.486;26.506;2022-07-22T12:24:32;99632.78;;;35.69;26.11
19510;BME280;9896;42.486;26.506;2022-07-22T12:27:00;99634.88;;;36.16;24.62
19510;BME280;9896;42.486;26.506;2022-07-22T12:32:10;99627.81;;;35.59;24.72
19510;BME280;9896;42.486;26.506;2022-07-22T12:34:45;99642.34;;;34.63;23.65
19510;BME280;9896;42.486;26.506;2022-07-22T12:37:32;99629.81;;;35.25;22.39
19510;BME280;9896;42.486;26.506;2022-07-22T12:40:21;99628.66;;;35.93;22.95
19510;BME280;9896;42.486;26.506;2022-07-22T12:43:26;99631.63;;;35.73;21.16
19510;BME280;9896;42.486;26.506;2022-07-22T12:45:52;99630.31;;;35.64;21.90
19510;BME280;9896;42.486;26.506;2022-07-22T12:48:18;99633.88;;;35.05;21.88
19510;BME280;9896;42.486;26.506;2022-07-22T12:50:56;99634.19;;;35.26;21.38
19510;BME280;9896;42.486;26.506;2022-07-22T12:53:24;99632.00;;;35.72;20.28
19510;BME280;9896;42.486;26.506;2022-07-22T12:55:55;99628.97;;;36.21;19.66
19510;BME280;9896;42.486;26.506;2022-07-22T12:58:24;99618.56;;;36.58;19.67
19510;BME280;9896;42.486;26.506;2022-07-22T13:00:52;99628.38;;;36.05;20.58
19510;BME280;9896;42.486;26.506;2022-07-22T13:03:20;99641.03;;;35.32;21.56
19510;BME280;9896;42.486;26.506;2022-07-22T13:05:48;99635.69;;;36.16;20.51
19510;BME280;9896;42.486;26.506;2022-07-22T13:08:14;99627.31;;;36.16;21.19
19510;BME280;9896;42.486;26.506;2022-07-22T13:10:40;99622.97;;;35.82;21.81
19510;BME280;9896;42.486;26.506;2022-07-22T13:13:06;99629.84;;;35.28;22.29
19510;BME280;9896;42.486;26.506;2022-07-22T13:15:32;99636.63;;;35.61;21.78
19510;BME280;9896;42.486;26.506;2022-07-22T13:17:57;99635.94;;;35.11;22.04
19510;BME280;9896;42.486;26.506;2022-07-22T13:20:23;99637.69;;;35.49;22.39
19510;BME280;9896;42.486;26.506;2022-07-22T13:22:48;99631.59;;;36.07;20.55
19510;BME280;9896;42.486;26.506;2022-07-22T13:25:14;99638.44;;;35.46;21.75
19510;BME280;9896;42.486;26.506;2022-07-22T13:27:40;99637.53;;;35.38;21.37
19510;BME280;9896;42.486;26.506;2022-07-22T13:30:06;99626.09;;;35.77;21.20